Time;durP1;ratioP1;P1;durP2;ratioP2;P2;SDS_P1;SDS_P2;PMS_P1;PMS_P2;Temp;Humidity;BMP_temperature;BMP_pressure;BME280_temperature;BME280_humidity;BME280_pressure;Samples;Min_cycle;Max_cycle;Signal;HPM_P1;HPM_P2
2022/07/24 00:00:13;;;;;;;;;28.00;26.00;;;30.53;97644.09;;;;119028;1189;26332;-67
2022/07/24 00:03:01;;;;;;;;;26.00;24.00;;;30.62;97649.66;;;;119062;1187;25360;-67
2022/07/24 00:05:29;;;;;;;;;24.50;19.25;;;30.62;97650.29;;;;118955;1190;25490;-67
2022/07/24 00:07:56;;;;;;;;;28.25;25.00;;;30.60;97646.23;;;;119146;1188;25186;-67
2022/07/24 00:10:24;;;;;;;;;33.25;24.00;;;30.57;97644.33;;;;119139;1187;25532;-67
2022/07/24 00:12:52;;;;;;;;;26.50;24.50;;;30.56;97644.11;;;;119037;1187;25379;-66
2022/07/24 00:15:20;;;;;;;;;25.50;20.75;;;30.56;97643.12;;;;119151;1186;25787;-67
2022/07/24 00:17:48;;;;;;;;;24.25;20.50;;;30.55;97642.08;;;;119135;1187;25417;-67
2022/07/24 00:20:16;;;;;;;;;29.00;24.25;;;30.54;97636.89;;;;119145;1188;25841;-67
2022/07/24 00:22:44;;;;;;;;;27.25;26.00;;;30.54;97629.93;;;;119146;1188;25168;-67
2022/07/24 00:25:12;;;;;;;;;22.50;20.75;;;30.53;97631.36;;;;119049;1188;26504;-67
2022/07/24 00:27:39;;;;;;;;;24.75;21.75;;;30.55;97625.09;;;;119159;1188;24918;-67
2022/07/24 00:30:08;;;;;;;;;25.25;21.50;;;30.54;97619.05;;;;119155;1188;25537;-67
2022/07/24 00:32:36;;;;;;;;;23.25;18.75;;;30.53;97613.17;;;;119145;1188;25637;-67
2022/07/24 00:35:04;;;;;;;;;26.00;23.25;;;30.54;97603.14;;;;118997;1189;25535;-67
2022/07/24 00:37:32;;;;;;;;;25.00;22.50;;;30.54;97598.30;;;;119128;1188;26273;-67
2022/07/24 00:40:00;;;;;;;;;27.50;23.00;;;30.54;97593.50;;;;119115;1188;26216;-67
2022/07/24 00:42:28;;;;;;;;;28.75;24.00;;;30.54;97589.89;;;;119115;1189;25296;-67
2022/07/24 00:44:56;;;;;;;;;22.00;19.25;;;30.54;97580.27;;;;118984;1189;25627;-67
2022/07/24 00:47:24;;;;;;;;;30.75;25.25;;;30.54;97574.73;;;;118997;1188;25553;-67
2022/07/24 00:49:52;;;;;;;;;30.50;24.75;;;30.53;97573.83;;;;118961;1189;24805;-67
2022/07/24 00:52:20;;;;;;;;;26.50;22.50;;;30.52;97568.67;;;;118895;1189;25119;-67
2022/07/24 00:54:47;;;;;;;;;21.50;19.00;;;30.52;97559.43;;;;118928;1190;25616;-67
2022/07/24 00:57:15;;;;;;;;;25.00;22.00;;;30.52;97558.77;;;;118964;1190;25393;-65
2022/07/24 00:59:43;;;;;;;;;23.75;22.75;;;30.52;97554.88;;;;118936;1187;25189;-67
2022/07/24 01:02:11;;;;;;;;;27.50;25.25;;;30.51;97553.61;;;;118946;1189;25508;-65
2022/07/24 01:04:39;;;;;;;;;24.25;20.00;;;30.51;97552.03;;;;119018;1189;25068;-66
2022/07/24 01:07:15;;;;;;;;;26.67;22.33;;;30.56;97550.55;;;;118960;1189;24869;-67
2022/07/24 01:09:43;;;;;;;;;28.00;22.50;;;30.56;97544.94;;;;118999;1190;25983;-67
2022/07/24 01:12:12;;;;;;;;;25.50;21.75;;;30.56;97537.55;;;;118981;1189;25831;-67
2022/07/24 01:14:40;;;;;;;;;25.75;25.25;;;30.55;97536.61;;;;118960;1189;25672;-68
2022/07/24 01:17:07;;;;;;;;;25.50;23.00;;;30.55;97534.40;;;;118954;1189;26069;-67
2022/07/24 01:19:35;;;;;;;;;25.75;23.00;;;30.54;97535.94;;;;119089;1187;25641;-67
2022/07/24 01:22:04;;;;;;;;;27.25;21.75;;;30.52;97534.07;;;;119099;1188;25646;-67
2022/07/24 01:24:32;;;;;;;;;32.75;25.75;;;30.53;97532.36;;;;119006;1189;25169;-67
2022/07/24 01:27:00;;;;;;;;;24.75;21.25;;;30.53;97527.58;;;;118976;1189;25426;-67
2022/07/24 01:29:28;;;;;;;;;27.25;19.75;;;30.53;97526.89;;;;118982;1190;25163;-68
2022/07/24 01:31:55;;;;;;;;;24.00;21.00;;;30.52;97525.16;;;;118979;1189;25484;-68
2022/07/24 01:34:23;;;;;;;;;20.00;19.00;;;30.52;97524.23;;;;118981;1189;24854;-67
2022/07/24 01:36:51;;;;;;;;;25.50;23.25;;;30.52;97525.77;;;;119074;1189;25431;-67
2022/07/24 01:39:19;;;;;;;;;23.75;20.75;;;30.51;97528.94;;;;119082;1188;25052;-67
2022/07/24 01:41:47;;;;;;;;;21.75;19.75;;;30.50;97528.58;;;;119106;1187;25688;-67
2022/07/24 01:44:15;;;;;;;;;24.00;21.75;;;30.50;97526.88;;;;119104;1188;25241;-67
2022/07/24 01:46:44;;;;;;;;;23.75;19.75;;;30.52;97525.06;;;;119022;1188;26120;-67
2022/07/24 01:49:12;;;;;;;;;25.50;23.25;;;30.52;97524.58;;;;118983;1190;25857;-67
2022/07/24 01:51:40;;;;;;;;;22.25;22.25;;;30.51;97522.08;;;;119005;1190;25661;-67
2022/07/24 01:54:08;;;;;;;;;20.00;18.50;;;30.51;97518.84;;;;118997;1189;26194;-67
2022/07/24 01:56:36;;;;;;;;;20.75;19.25;;;30.50;97516.73;;;;118993;1189;25665;-67
2022/07/24 01:59:05;;;;;;;;;24.25;21.75;;;30.52;97511.23;;;;119011;1189;24860;-67
2022/07/24 02:01:35;;;;;;;;;20.75;19.25;;;30.52;97506.70;;;;118927;1190;25702;-68
2022/07/24 02:04:04;;;;;;;;;23.25;19.25;;;30.50;97505.73;;;;118985;1189;26101;-67
2022/07/24 02:06:32;;;;;;;;;23.25;18.50;;;30.50;97503.81;;;;118992;1188;25171;-67
2022/07/24 02:09:00;;;;;;;;;18.75;18.25;;;30.51;97502.61;;;;119112;1189;26154;-67
2022/07/24 02:11:28;;;;;;;;;22.25;19.50;;;30.50;97498.20;;;;119096;1188;25549;-67
2022/07/24 02:13:56;;;;;;;;;20.75;17.00;;;30.50;97490.92;;;;118995;1188;25310;-67
2022/07/24 02:16:24;;;;;;;;;28.00;22.25;;;30.48;97488.11;;;;119080;1188;25132;-67
2022/07/24 02:18:52;;;;;;;;;25.50;21.00;;;30.49;97488.38;;;;119091;1188;24928;-67
2022/07/24 02:21:20;;;;;;;;;28.33;20.67;;;30.50;97485.60;;;;119095;1187;25657;-67
2022/07/24 02:23:48;;;;;;;;;25.75;20.25;;;30.49;97481.55;;;;119109;1188;25341;-67
2022/07/24 02:26:16;;;;;;;;;26.50;20.25;;;30.48;97478.64;;;;119087;1187;25491;-67
2022/07/24 02:28:44;;;;;;;;;32.00;22.00;;;30.48;97475.33;;;;119051;1187;24746;-67
2022/07/24 02:31:12;;;;;;;;;27.00;20.00;;;30.50;97470.70;;;;118959;1189;26225;-67
2022/07/24 02:33:39;;;;;;;;;20.00;18.75;;;30.49;97463.48;;;;119002;1190;25236;-67
2022/07/24 02:36:07;;;;;;;;;24.50;22.00;;;30.49;97458.45;;;;118991;1190;26362;-67
2022/07/24 02:38:36;;;;;;;;;21.67;21.00;;;30.48;97459.16;;;;118925;1190;25384;-67
2022/07/24 02:41:04;;;;;;;;;22.00;20.00;;;30.49;97459.35;;;;118992;1189;25887;-67
2022/07/24 02:43:31;;;;;;;;;19.25;18.00;;;30.49;97458.19;;;;118980;1188;25550;-67
2022/07/24 02:45:59;;;;;;;;;24.75;20.00;;;30.48;97459.58;;;;118992;1190;25759;-67
2022/07/24 02:48:27;;;;;;;;;24.25;20.25;;;30.48;97457.53;;;;119054;1188;24732;-67
2022/07/24 02:50:55;;;;;;;;;21.00;20.25;;;30.51;97452.52;;;;119080;1188;25586;-67
2022/07/24 02:53:23;;;;;;;;;20.50;18.50;;;30.49;97453.91;;;;119116;1188;25646;-67
2022/07/24 02:55:51;;;;;;;;;24.25;19.50;;;30.49;97452.30;;;;119094;1188;25449;-67
2022/07/24 02:58:19;;;;;;;;;19.50;17.75;;;30.48;97455.02;;;;119082;1187;25935;-67
2022/07/24 03:00:47;;;;;;;;;20.67;17.67;;;30.47;97456.29;;;;119037;1188;25818;-67
2022/07/24 03:03:15;;;;;;;;;24.00;19.75;;;30.49;97457.03;;;;118997;1189;25714;-67
2022/07/24 03:05:43;;;;;;;;;19.00;16.50;;;30.48;97457.67;;;;119144;1188;24817;-67
2022/07/24 03:08:11;;;;;;;;;21.00;20.00;;;30.51;97457.88;;;;119265;1187;25306;-67
2022/07/24 03:10:39;;;;;;;;;22.00;20.75;;;30.49;97456.38;;;;119079;1189;25611;-67
2022/07/24 03:13:08;;;;;;;;;22.75;19.75;;;30.49;97455.47;;;;118989;1189;24980;-67
2022/07/24 03:15:35;;;;;;;;;19.33;18.33;;;30.49;97452.76;;;;118981;1190;24721;-67
2022/07/24 03:18:03;;;;;;;;;23.75;21.00;;;30.49;97451.70;;;;118981;1190;24919;-67
2022/07/24 03:20:44;;;;;;;;;19.25;18.75;;;30.53;97456.88;;;;118974;1189;25708;-67
2022/07/24 03:23:12;;;;;;;;;23.75;20.50;;;30.54;97453.05;;;;118973;1188;25344;-67
2022/07/24 03:25:40;;;;;;;;;24.50;19.75;;;30.54;97451.65;;;;118979;1188;24977;-67
2022/07/24 03:28:08;;;;;;;;;19.50;17.25;;;30.50;97453.14;;;;118908;1190;26538;-67
2022/07/24 03:30:36;;;;;;;;;16.50;13.75;;;30.48;97449.90;;;;118944;1189;25736;-68
2022/07/24 03:33:04;;;;;;;;;18.75;16.75;;;30.52;97449.89;;;;118979;1188;25049;-68
2022/07/24 03:35:32;;;;;;;;;20.75;18.75;;;30.52;97449.39;;;;119097;1187;25652;-68
2022/07/24 03:37:59;;;;;;;;;19.25;18.75;;;30.51;97446.41;;;;118936;1189;26060;-67
2022/07/24 03:40:27;;;;;;;;;23.75;20.75;;;30.49;97449.92;;;;119011;1189;25639;-67
2022/07/24 03:42:55;;;;;;;;;21.75;21.00;;;30.49;97450.63;;;;119000;1190;24880;-67
2022/07/24 03:45:23;;;;;;;;;24.75;20.00;;;30.47;97452.79;;;;118990;1189;24968;-68
2022/07/24 03:47:51;;;;;;;;;17.75;14.25;;;30.48;97452.69;;;;118976;1189;26272;-66
2022/07/24 03:50:19;;;;;;;;;19.00;19.00;;;30.48;97455.10;;;;118994;1190;25907;-66
2022/07/24 03:52:49;;;;;;;;;18.50;15.25;;;30.48;97452.91;;;;119041;1188;24951;-67
2022/07/24 03:55:18;;;;;;;;;16.50;16.25;;;30.49;97450.38;;;;119004;1188;25116;-67
2022/07/24 03:57:46;;;;;;;;;18.25;17.50;;;30.50;97450.00;;;;118992;1189;25495;-67
2022/07/24 04:00:14;;;;;;;;;18.50;17.75;;;30.48;97451.15;;;;118987;1189;25777;-67
2022/07/24 04:02:42;;;;;;;;;23.00;19.00;;;30.48;97453.92;;;;118981;1189;25707;-67
2022/07/24 04:05:12;;;;;;;;;17.75;17.50;;;30.49;97456.67;;;;118947;1190;26079;-67
2022/07/24 04:07:40;;;;;;;;;16.00;14.00;;;30.49;97465.48;;;;118935;1191;25737;-67
2022/07/24 04:10:09;;;;;;;;;23.25;21.25;;;30.49;97467.45;;;;118987;1189;25480;-67
2022/07/24 04:12:37;;;;;;;;;18.75;17.25;;;30.49;97466.91;;;;119004;1189;25763;-67
2022/07/24 04:15:05;;;;;;;;;13.00;13.00;;;30.50;97463.21;;;;118981;1190;24838;-67
2022/07/24 04:17:37;;;;;;;;;19.75;18.25;;;30.49;97460.83;;;;118998;1190;25280;-67
2022/07/24 04:20:07;;;;;;;;;23.50;20.75;;;30.48;97458.22;;;;119077;1187;25321;-68
2022/07/24 04:22:35;;;;;;;;;16.75;16.25;;;30.52;97455.99;;;;119102;1186;25426;-68
2022/07/24 04:25:08;;;;;;;;;20.75;16.75;;;30.55;97458.29;;;;119011;1189;25428;-68
2022/07/24 04:27:35;;;;;;;;;17.33;16.67;;;30.58;97459.95;;;;119001;1188;25649;-67
2022/07/24 04:30:05;;;;;;;;;19.25;19.00;;;30.60;97462.36;;;;118955;1190;24949;-67
2022/07/24 04:32:32;;;;;;;;;25.50;20.00;;;30.58;97463.41;;;;118965;1189;25678;-67
2022/07/24 04:35:00;;;;;;;;;17.75;17.00;;;30.59;97470.98;;;;118927;1190;25102;-67
2022/07/24 04:37:28;;;;;;;;;25.50;23.00;;;30.59;97479.11;;;;118999;1188;25047;-67
2022/07/24 04:39:56;;;;;;;;;20.25;18.75;;;30.59;97496.76;;;;119096;1188;26246;-68
2022/07/24 04:42:23;;;;;;;;;22.25;17.50;;;30.58;97507.92;;;;119096;1188;24955;-68
2022/07/24 04:44:51;;;;;;;;;23.00;20.33;;;30.59;97515.35;;;;119122;1187;24942;-68
2022/07/24 04:47:19;;;;;;;;;18.50;17.25;;;30.59;97529.58;;;;119100;1187;24962;-69
2022/07/24 04:49:47;;;;;;;;;22.67;20.67;;;30.62;97526.19;;;;118983;1186;25692;-68
2022/07/24 04:52:15;;;;;;;;;21.75;20.25;;;30.65;97520.33;;;;118946;1189;24948;-68
2022/07/24 04:54:43;;;;;;;;;17.50;15.50;;;30.64;97523.93;;;;118931;1189;25003;-70
2022/07/24 04:57:10;;;;;;;;;18.50;17.25;;;30.68;97535.52;;;;118965;1190;25513;-69
2022/07/24 04:59:38;;;;;;;;;18.50;16.75;;;30.68;97546.98;;;;119007;1187;24901;-67
2022/07/24 05:02:06;;;;;;;;;23.50;18.00;;;30.73;97552.56;;;;119006;1189;25264;-65
2022/07/24 05:04:34;;;;;;;;;22.25;19.75;;;30.71;97549.43;;;;118977;1189;26426;-68
2022/07/24 05:07:03;;;;;;;;;16.00;15.00;;;30.67;97553.87;;;;119080;1187;25043;-67
2022/07/24 05:09:31;;;;;;;;;18.00;17.00;;;30.68;97551.63;;;;119152;1189;24905;-68
2022/07/24 05:11:59;;;;;;;;;22.25;19.75;;;30.68;97556.46;;;;119035;1188;24907;-69
2022/07/24 05:14:27;;;;;;;;;18.25;16.00;;;30.67;97556.27;;;;118996;1189;25745;-66
2022/07/24 05:16:55;;;;;;;;;17.25;16.75;;;30.64;97556.89;;;;118949;1189;26340;-66
2022/07/24 05:19:23;;;;;;;;;19.00;17.00;;;30.59;97552.73;;;;118966;1189;25528;-68
2022/07/24 05:21:50;;;;;;;;;18.25;18.25;;;30.55;97554.66;;;;119043;1188;25356;-69
2022/07/24 05:24:18;;;;;;;;;21.75;17.75;;;30.49;97555.30;;;;119002;1190;25140;-69
2022/07/24 05:26:46;;;;;;;;;21.00;17.75;;;30.48;97552.84;;;;119027;1189;25099;-69
2022/07/24 05:29:15;;;;;;;;;18.25;17.50;;;30.50;97562.58;;;;119004;1189;24996;-69
2022/07/24 05:31:43;;;;;;;;;21.75;19.50;;;30.52;97561.40;;;;119074;1188;24849;-68
2022/07/24 05:34:11;;;;;;;;;21.00;18.67;;;30.51;97566.84;;;;119083;1187;24963;-68
2022/07/24 05:36:39;;;;;;;;;30.00;20.00;;;30.51;97560.82;;;;119092;1187;25455;-69
2022/07/24 05:39:07;;;;;;;;;17.50;14.00;;;30.51;97566.19;;;;119100;1189;24788;-74
2022/07/24 05:41:35;;;;;;;;;22.25;18.75;;;30.55;97567.56;;;;119015;1189;26223;-67
2022/07/24 05:44:03;;;;;;;;;23.33;17.00;;;30.58;97569.96;;;;119002;1189;26310;-66
2022/07/24 05:46:31;;;;;;;;;23.00;20.50;;;30.59;97570.17;;;;118985;1188;25855;-66
2022/07/24 05:48:59;;;;;;;;;18.50;17.25;;;30.60;97571.12;;;;118981;1189;25055;-66
2022/07/24 05:51:27;;;;;;;;;22.25;18.25;;;30.59;97573.38;;;;118991;1190;25098;-67
2022/07/24 05:53:55;;;;;;;;;24.75;22.00;;;30.59;97574.44;;;;118997;1190;25127;-66
2022/07/24 05:56:23;;;;;;;;;22.50;19.25;;;30.60;97578.64;;;;119010;1190;25968;-66
2022/07/24 05:58:52;;;;;;;;;20.25;17.50;;;30.62;97576.20;;;;119008;1190;25557;-68
2022/07/24 06:01:20;;;;;;;;;18.50;18.25;;;30.61;97572.80;;;;118986;1190;24775;-67
2022/07/24 06:03:48;;;;;;;;;16.00;13.50;;;30.61;97572.52;;;;118983;1189;25798;-67
2022/07/24 06:06:15;;;;;;;;;20.75;17.75;;;30.61;97567.81;;;;118974;1190;25708;-67
2022/07/24 06:08:45;;;;;;;;;24.25;16.25;;;30.61;97572.41;;;;119003;1190;25225;-68
2022/07/24 06:11:13;;;;;;;;;19.00;17.00;;;30.62;97573.91;;;;118902;1190;26387;-67
2022/07/24 06:13:41;;;;;;;;;20.75;18.50;;;30.62;97570.81;;;;118983;1190;25142;-64
2022/07/24 06:16:10;;;;;;;;;17.00;17.00;;;30.65;97573.80;;;;118985;1189;24840;-63
2022/07/24 06:18:38;;;;;;;;;20.50;18.00;;;30.67;97571.23;;;;119066;1189;25372;-63
2022/07/24 06:21:06;;;;;;;;;17.25;15.25;;;30.81;97566.29;;;;119117;1189;25530;-63
2022/07/24 06:23:34;;;;;;;;;21.67;19.00;;;30.97;97567.36;;;;118973;1189;25227;-63
2022/07/24 06:26:02;;;;;;;;;14.50;12.75;;;30.89;97563.98;;;;118989;1189;25553;-68
2022/07/24 06:28:30;;;;;;;;;18.50;18.00;;;30.81;97566.27;;;;118991;1189;24958;-67
2022/07/24 06:30:58;;;;;;;;;18.25;18.00;;;30.78;97567.20;;;;118992;1190;26096;-67
2022/07/24 06:33:26;;;;;;;;;19.00;17.50;;;30.75;97569.21;;;;119042;1189;25398;-69
2022/07/24 06:35:54;;;;;;;;;22.75;20.75;;;30.82;97568.89;;;;119415;1190;24844;-68
2022/07/24 06:38:22;;;;;;;;;19.50;16.75;;;31.47;97560.01;;;;119381;1188;25141;-68
2022/07/24 06:40:52;;;;;;;;;24.50;19.75;;;31.86;97559.91;;;;119220;1190;25627;-74
2022/07/24 06:43:20;;;;;;;;;22.50;19.75;;;32.04;97556.84;;;;118941;1190;25606;-72
2022/07/24 06:45:48;;;;;;;;;24.50;20.00;;;31.65;97556.39;;;;118975;1189;25327;-71
2022/07/24 06:48:16;;;;;;;;;23.00;20.75;;;31.40;97554.36;;;;118973;1189;25325;-71
2022/07/24 06:50:44;;;;;;;;;17.50;17.50;;;31.29;97550.52;;;;119005;1189;25552;-71
2022/07/24 06:53:11;;;;;;;;;21.50;19.25;;;31.17;97548.55;;;;118993;1188;25354;-71
2022/07/24 06:55:39;;;;;;;;;17.75;17.75;;;31.10;97543.58;;;;118987;1189;25647;-71
2022/07/24 06:58:07;;;;;;;;;19.25;18.25;;;31.04;97539.27;;;;119003;1190;25787;-71
2022/07/24 07:00:35;;;;;;;;;24.25;20.50;;;30.99;97533.89;;;;118988;1190;25022;-71
2022/07/24 07:03:02;;;;;;;;;18.50;18.50;;;30.96;97530.85;;;;118997;1189;26083;-71
2022/07/24 07:05:30;;;;;;;;;22.50;20.00;;;30.94;97526.25;;;;119110;1188;25477;-71
2022/07/24 07:07:58;;;;;;;;;22.75;20.00;;;30.92;97526.97;;;;119006;1189;24786;-71
2022/07/24 07:10:26;;;;;;;;;21.33;20.33;;;30.92;97522.55;;;;119125;1189;24994;-71
2022/07/24 07:12:54;;;;;;;;;22.50;21.75;;;30.91;97517.38;;;;118999;1190;25588;-71
2022/07/24 07:15:22;;;;;;;;;23.25;22.75;;;30.90;97518.98;;;;119103;1188;25577;-71
2022/07/24 07:17:51;;;;;;;;;19.50;18.75;;;30.91;97516.31;;;;119120;1188;25616;-67
2022/07/24 07:20:19;;;;;;;;;22.50;21.25;;;30.90;97509.84;;;;119091;1187;25727;-63
2022/07/24 07:22:46;;;;;;;;;20.25;18.25;;;30.94;97508.11;;;;118980;1189;26515;-62
2022/07/24 07:25:14;;;;;;;;;19.25;18.50;;;30.91;97505.30;;;;118927;1189;25573;-63
2022/07/24 07:27:42;;;;;;;;;18.25;17.75;;;30.90;97507.71;;;;118971;1190;25434;-63
2022/07/24 07:30:12;;;;;;;;;21.50;18.75;;;30.92;97499.70;;;;118974;1190;25426;-63
2022/07/24 07:32:40;;;;;;;;;19.50;15.50;;;30.93;97497.96;;;;118963;1189;26052;-64
2022/07/24 07:35:09;;;;;;;;;25.33;20.33;;;30.94;97488.20;;;;118998;1189;24894;-65
2022/07/24 07:37:50;;;;;;;;;19.00;16.75;;;30.94;97482.21;;;;118966;1189;25174;-71
2022/07/24 07:40:18;;;;;;;;;20.25;16.00;;;30.95;97494.98;;;;119282;1190;25353;-66
2022/07/24 07:42:46;;;;;;;;;22.25;17.25;;;31.37;97506.30;;;;118981;1189;26010;-67
2022/07/24 07:45:14;;;;;;;;;22.00;18.50;;;31.29;97503.52;;;;118977;1190;24958;-66
2022/07/24 07:47:42;;;;;;;;;21.50;17.00;;;31.17;97503.22;;;;119007;1188;24963;-66
2022/07/24 07:50:11;;;;;;;;;23.50;20.75;;;31.07;97522.38;;;;118987;1189;25435;-66
2022/07/24 07:52:39;;;;;;;;;16.75;13.50;;;31.03;97523.29;;;;118981;1190;25677;-66
2022/07/24 07:55:08;;;;;;;;;22.00;17.50;;;30.99;97528.15;;;;118976;1190;25081;-65
2022/07/24 07:57:39;;;;;;;;;21.25;19.00;;;30.94;97531.76;;;;118969;1190;25310;-64
2022/07/24 08:00:27;;;;;;;;;20.25;17.75;;;31.03;97535.96;;;;119055;1189;25723;-66
2022/07/24 08:02:55;;;;;;;;;16.75;13.75;;;31.07;97536.31;;;;119106;1189;25724;-65
2022/07/24 08:05:23;;;;;;;;;16.50;14.75;;;31.23;97542.74;;;;119081;1190;25613;-65
2022/07/24 08:07:51;;;;;;;;;17.25;14.50;;;31.34;97541.23;;;;119063;1190;26244;-65
2022/07/24 08:10:18;;;;;;;;;17.00;14.50;;;31.42;97544.59;;;;119057;1190;26249;-65
2022/07/24 08:12:48;;;;;;;;;19.75;18.50;;;31.48;97549.86;;;;119100;1189;25788;-65
2022/07/24 08:15:17;;;;;;;;;17.25;17.25;;;31.59;97549.05;;;;119024;1189;25594;-66
2022/07/24 08:17:45;;;;;;;;;18.00;15.50;;;31.48;97553.52;;;;118991;1189;26240;-66
2022/07/24 08:20:12;;;;;;;;;18.00;15.00;;;31.31;97560.34;;;;119004;1189;24849;-66
2022/07/24 08:22:40;;;;;;;;;23.25;21.25;;;31.13;97559.84;;;;118998;1189;25814;-65
2022/07/24 08:25:08;;;;;;;;;20.50;19.00;;;31.05;97562.04;;;;118937;1190;25615;-66
2022/07/24 08:27:37;;;;;;;;;20.75;19.25;;;31.00;97571.86;;;;119013;1189;24943;-66
2022/07/24 08:30:07;;;;;;;;;19.75;16.50;;;30.95;97569.82;;;;119007;1189;25788;-66
2022/07/24 08:32:35;;;;;;;;;18.75;17.00;;;30.94;97572.73;;;;118956;1189;24973;-66
2022/07/24 08:35:04;;;;;;;;;17.25;17.25;;;30.92;97571.90;;;;118992;1190;25542;-66
2022/07/24 08:37:37;;;;;;;;;19.50;18.75;;;30.88;97577.55;;;;118997;1190;25600;-66
2022/07/24 08:40:06;;;;;;;;;17.50;16.00;;;30.83;97580.52;;;;118968;1189;25036;-66
2022/07/24 08:42:35;;;;;;;;;20.00;18.25;;;30.86;97584.85;;;;118999;1189;26137;-66
2022/07/24 08:45:04;;;;;;;;;21.50;19.00;;;30.87;97588.24;;;;118997;1190;25044;-66
2022/07/24 08:47:33;;;;;;;;;21.25;19.50;;;30.87;97589.84;;;;118994;1190;25070;-66
2022/07/24 08:50:02;;;;;;;;;24.75;22.00;;;30.89;97589.28;;;;119009;1189;25703;-65
2022/07/24 08:52:31;;;;;;;;;22.50;20.00;;;30.86;97593.14;;;;118977;1190;25060;-66
2022/07/24 08:54:59;;;;;;;;;20.75;19.50;;;30.81;97601.32;;;;118939;1190;25329;-66
2022/07/24 08:57:27;;;;;;;;;20.50;19.25;;;30.81;97601.87;;;;118916;1190;26389;-65
2022/07/24 08:59:54;;;;;;;;;19.50;14.50;;;30.81;97609.50;;;;118993;1190;25719;-66
2022/07/24 09:02:22;;;;;;;;;21.25;18.25;;;30.82;97610.01;;;;118988;1189;24727;-66
2022/07/24 09:04:59;;;;;;;;;16.50;16.00;;;30.75;97610.56;;;;118976;1190;25584;-67
2022/07/24 09:07:29;;;;;;;;;16.50;15.25;;;30.84;97608.63;;;;119068;1187;26106;-67
2022/07/24 09:10:17;;;;;;;;;23.00;20.25;;;30.78;97605.25;;;;119257;1187;25633;-65
2022/07/24 09:12:47;;;;;;;;;20.00;18.00;;;30.85;97604.39;;;;119257;1187;25640;-66
2022/07/24 09:15:20;;;;;;;;;23.00;18.75;;;30.97;97609.36;;;;119233;1187;25232;-67
2022/07/24 09:17:53;;;;;;;;;18.00;17.00;;;31.04;97609.57;;;;118980;1187;25949;-65
2022/07/24 09:20:24;;;;;;;;;22.00;17.75;;;31.09;97614.15;;;;119182;1188;24815;-66
2022/07/24 09:22:52;;;;;;;;;19.50;18.50;;;31.02;97613.00;;;;119217;1188;25153;-65
2022/07/24 09:25:23;;;;;;;;;21.75;18.25;;;31.11;97611.70;;;;119380;1187;25595;-65
2022/07/24 09:27:59;;;;;;;;;26.50;23.25;;;31.39;97612.23;;;;119194;1187;26236;-63
2022/07/24 09:30:38;;;;;;;;;20.75;20.25;;;31.40;97610.88;;;;118953;1189;25345;-66
2022/07/24 09:33:16;;;;;;;;;44.25;34.25;;;31.38;97607.89;;;;119224;1188;25249;-67
2022/07/24 09:35:49;;;;;;;;;32.00;28.50;;;31.34;97600.52;;;;118972;1187;25542;-79
2022/07/24 09:38:25;;;;;;;;;40.00;33.50;;;31.45;97596.58;;;;118970;1187;25358;-80
2022/07/24 09:40:59;;;;;;;;;45.75;31.75;;;31.48;97602.42;;;;118898;1189;26266;-77
2022/07/24 09:43:29;;;;;;;;;39.75;32.00;;;31.49;97598.75;;;;119124;1188;25013;-78
2022/07/24 09:46:06;;;;;;;;;40.00;29.25;;;31.58;97597.23;;;;118993;1188;24814;-74
2022/07/24 09:48:51;;;;;;;;;32.75;30.00;;;31.55;97599.73;;;;118990;1189;24748;-73
2022/07/24 09:51:19;;;;;;;;;36.25;32.25;;;31.65;97595.63;;;;119145;1187;25418;-74
2022/07/24 09:53:53;;;;;;;;;33.00;26.75;;;31.57;97590.84;;;;119154;1186;25035;-72
2022/07/24 09:56:25;;;;;;;;;35.25;29.50;;;31.61;97592.31;;;;119111;1187;24991;-77
2022/07/24 09:58:55;;;;;;;;;30.00;27.25;;;31.56;97590.58;;;;119201;1188;25353;-68
2022/07/24 10:01:25;;;;;;;;;33.75;28.00;;;31.62;97584.84;;;;119076;1188;25521;-73
2022/07/24 10:03:59;;;;;;;;;37.00;28.25;;;31.59;97585.73;;;;118963;1189;25565;-65
2022/07/24 10:06:27;;;;;;;;;38.50;27.25;;;31.57;97590.13;;;;118967;1188;25287;-65
2022/07/24 10:08:56;;;;;;;;;76.33;52.67;;;31.53;97592.23;;;;118969;1189;25028;-68
2022/07/24 10:11:25;;;;;;;;;65.33;44.00;;;31.44;97587.62;;;;118958;1188;25395;-65
2022/07/24 10:13:53;;;;;;;;;64.00;43.33;;;31.42;97588.81;;;;119052;1189;24854;-67
2022/07/24 10:16:31;;;;;;;;;102.00;66.00;;;31.46;97592.05;;;;119052;1187;25992;-65
2022/07/24 10:19:04;;;;;;;;;93.67;63.00;;;31.35;97588.19;;;;119082;1187;24842;-65
2022/07/24 10:21:35;;;;;;;;;99.67;71.33;;;31.32;97589.92;;;;118986;1190;25557;-64
2022/07/24 10:24:10;;;;;;;;;89.67;59.33;;;31.32;97589.16;;;;119002;1188;25651;-65
2022/07/24 10:26:42;;;;;;;;;92.33;56.67;;;31.36;97585.67;;;;118998;1189;25955;-66
2022/07/24 10:29:11;;;;;;;;;81.33;54.00;;;31.31;97580.40;;;;119006;1190;24891;-66
2022/07/24 10:31:45;;;;;;;;;81.33;52.67;;;31.26;97586.00;;;;118972;1190;25565;-66
2022/07/24 10:34:46;;;;;;;;;72.50;47.00;;;31.23;97586.48;;;;118904;1190;25537;-65
2022/07/24 10:37:31;;;;;;;;;81.00;54.00;;;31.29;97583.99;;;;119008;1190;25414;-65
2022/07/24 10:40:26;;;;;;;;;75.00;51.33;;;31.25;97583.15;;;;118918;1190;24689;-67
2022/07/24 10:43:11;;;;;;;;;77.00;50.33;;;31.21;97582.30;;;;118993;1190;25404;-66
2022/07/24 10:45:53;;;;;;;;;76.67;51.67;;;31.15;97583.64;;;;119000;1189;25528;-66
2022/07/24 10:48:22;;;;;;;;;80.33;53.00;;;31.11;97581.80;;;;118971;1189;25477;-66
2022/07/24 10:51:07;;;;;;;;;68.00;51.33;;;31.07;97577.27;;;;118996;1190;24983;-66
2022/07/24 10:53:37;;;;;;;;;73.67;50.33;;;31.07;97578.04;;;;118987;1189;25049;-64
2022/07/24 10:56:15;;;;;;;;;75.67;49.67;;;31.05;97578.19;;;;118983;1189;24966;-65
2022/07/24 10:59:09;;;;;;;;;61.67;49.00;;;31.04;97576.91;;;;119007;1190;25228;-66
2022/07/24 11:01:44;;;;;;;;;68.00;48.33;;;31.04;97568.69;;;;119003;1189;25652;-65
2022/07/24 11:04:18;;;;;;;;;76.00;50.33;;;31.01;97569.33;;;;118989;1189;26413;-66
2022/07/24 11:07:07;;;;;;;;;72.67;50.00;;;31.01;97563.02;;;;119101;1187;25105;-66
2022/07/24 11:10:01;;;;;;;;;66.33;47.33;;;31.09;97560.98;;;;118986;1190;26360;-65
2022/07/24 11:12:30;;;;;;;;;63.00;47.67;;;31.11;97551.26;;;;119119;1187;25073;-66
2022/07/24 11:17:52;;;;;;;;;65.67;46.00;;;31.11;97557.48;;;;119114;1187;24936;-65
2022/07/24 11:20:21;;;;;;;;;71.00;48.50;;;31.06;97551.73;;;;118925;1190;25907;-65
2022/07/24 11:22:57;;;;;;;;;66.67;44.67;;;31.05;97556.63;;;;118972;1189;25659;-66
2022/07/24 11:25:27;;;;;;;;;68.33;48.67;;;31.06;97550.17;;;;118990;1189;26636;-66
2022/07/24 11:28:12;;;;;;;;;72.67;47.33;;;31.05;97549.48;;;;118983;1189;25324;-65
2022/07/24 11:30:43;;;;;;;;;65.67;44.67;;;31.10;97551.61;;;;118984;1188;25120;-65
2022/07/24 11:33:12;;;;;;;;;63.00;40.33;;;31.10;97550.85;;;;118919;1189;24967;-67
2022/07/24 11:35:40;;;;;;;;;64.67;44.33;;;31.07;97545.50;;;;118987;1189;24938;-66
2022/07/24 11:38:07;;;;;;;;;67.00;43.00;;;31.04;97538.80;;;;118973;1189;25592;-66
2022/07/24 11:40:36;;;;;;;;;54.67;44.33;;;31.02;97537.84;;;;118994;1189;25845;-66
2022/07/24 11:43:08;;;;;;;;;66.67;46.00;;;31.01;97536.00;;;;118991;1189;25336;-65
2022/07/24 11:45:39;;;;;;;;;62.50;44.50;;;31.02;97540.98;;;;118988;1189;25605;-65
2022/07/24 11:48:18;;;;;;;;;66.33;46.33;;;31.01;97532.64;;;;118960;1189;25034;-65
2022/07/24 11:50:46;;;;;;;;;63.67;44.33;;;31.05;97532.38;;;;118995;1189;26412;-65
2022/07/24 11:53:14;;;;;;;;;63.67;45.33;;;31.03;97529.64;;;;118999;1189;25384;-65
2022/07/24 11:55:41;;;;;;;;;63.33;46.00;;;31.01;97533.84;;;;118969;1189;25597;-66
2022/07/24 11:58:09;;;;;;;;;66.67;46.33;;;30.99;97529.49;;;;118998;1189;24996;-65
2022/07/24 12:00:57;;;;;;;;;63.67;43.33;;;31.06;97523.10;;;;118989;1190;24797;-65
2022/07/24 12:03:26;;;;;;;;;57.00;43.00;;;31.06;97524.86;;;;118981;1190;25911;-65
2022/07/24 12:05:54;;;;;;;;;66.67;46.33;;;31.03;97525.86;;;;118954;1189;25725;-64